sensor_id;sensor_type;location;lat;lon;timestamp;pressure;altitude;pressure_sealevel;temperature;humidity
1726;BME280;41776;48.260;8.928;2023-03-15T00:00:22;52565.19;;;-145.69;100.00
1726;BME280;41776;48.260;8.928;2023-03-15T00:02:49;52547.38;;;-145.69;100.00
1726;BME280;41776;48.260;8.928;2023-03-15T00:05:16;52519.63;;;-145.69;100.00
1726;BME280;41776;48.260;8.928;2023-03-15T00:07:44;52553.31;;;-145.69;100.00
1726;BME280;41776;48.260;8.928;2023-03-15T00:10:11;52551.31;;;-145.69;100.00
1726;BME280;41776;48.260;8.928;2023-03-15T00:12:37;52529.53;;;-145.69;100.00
1726;BME280;41776;48.260;8.928;2023-03-15T00:15:05;52539.44;;;-145.69;100.00
1726;BME280;41776;48.260;8.928;2023-03-15T00:17:32;52555.28;;;-145.69;100.00
1726;BME280;41776;48.260;8.928;2023-03-15T00:19:59;52567.16;;;-145.69;100.00
1726;BME280;41776;48.260;8.928;2023-03-15T00:22:25;52543.41;;;-145.69;100.00
1726;BME280;41776;48.260;8.928;2023-03-15T00:24:53;52521.63;;;-145.69;100.00
1726;BME280;41776;48.260;8.928;2023-03-15T00:27:19;52555.28;;;-145.69;100.00
1726;BME280;41776;48.260;8.928;2023-03-15T00:29:46;52581.03;;;-145.69;100.00
1726;BME280;41776;48.260;8.928;2023-03-15T00:32:13;52529.53;;;-145.69;100.00
1726;BME280;41776;48.260;8.928;2023-03-15T00:34:39;52571.13;;;-145.69;100.00
1726;BME280;41776;48.260;8.928;2023-03-15T00:37:06;52559.25;;;-145.69;100.00
1726;BME280;41776;48.260;8.928;2023-03-15T00:39:35;52569.16;;;-145.69;100.00
1726;BME280;41776;48.260;8.928;2023-03-15T00:42:05;52537.47;;;-145.69;100.00
1726;BME280;41776;48.260;8.928;2023-03-15T00:44:32;52586.97;;;-145.69;100.00
1726;BME280;41776;48.260;8.928;2023-03-15T00:46:58;52529.53;;;-145.69;100.00
1726;BME280;41776;48.260;8.928;2023-03-15T00:49:25;52590.94;;;-145.69;100.00
1726;BME280;41776;48.260;8.928;2023-03-15T00:51:53;52561.22;;;-145.69;100.00
1726;BME280;41776;48.260;8.928;2023-03-15T00:54:20;52571.13;;;-145.69;100.00
1726;BME280;41776;48.260;8.928;2023-03-15T00:56:49;52513.69;;;-145.69;100.00
1726;BME280;41776;48.260;8.928;2023-03-15T00:59:17;52547.38;;;-145.69;100.00
1726;BME280;41776;48.260;8.928;2023-03-15T01:01:43;52545.38;;;-145.69;100.00
1726;BME280;41776;48.260;8.928;2023-03-15T01:04:10;52513.69;;;-145.69;100.00
1726;BME280;41776;48.260;8.928;2023-03-15T01:06:37;52533.50;;;-145.69;100.00
1726;BME280;41776;48.260;8.928;2023-03-15T01:09:04;52553.31;;;-145.69;100.00
1726;BME280;41776;48.260;8.928;2023-03-15T01:11:31;52545.38;;;-145.69;100.00
1726;BME280;41776;48.260;8.928;2023-03-15T01:13:58;52535.47;;;-145.69;100.00
1726;BME280;41776;48.260;8.928;2023-03-15T01:16:27;52561.22;;;-145.69;100.00
1726;BME280;41776;48.260;8.928;2023-03-15T01:18:54;52585.00;;;-145.69;100.00
1726;BME280;41776;48.260;8.928;2023-03-15T01:21:22;52551.31;;;-145.69;100.00
1726;BME280;41776;48.260;8.928;2023-03-15T01:23:49;52523.59;;;-145.69;100.00
1726;BME280;41776;48.260;8.928;2023-03-15T01:26:16;52571.13;;;-145.69;100.00
1726;BME280;41776;48.260;8.928;2023-03-15T01:28:43;52547.38;;;-145.69;100.00
1726;BME280;41776;48.260;8.928;2023-03-15T01:31:16;52579.06;;;-145.69;100.00
1726;BME280;41776;48.260;8.928;2023-03-15T01:33:45;52535.47;;;-145.69;100.00
1726;BME280;41776;48.260;8.928;2023-03-15T01:36:12;52539.44;;;-145.69;100.00
1726;BME280;41776;48.260;8.928;2023-03-15T01:38:39;52557.28;;;-145.69;100.00
1726;BME280;41776;48.260;8.928;2023-03-15T01:41:05;52535.47;;;-145.69;100.00
1726;BME280;41776;48.260;8.928;2023-03-15T01:43:32;52586.97;;;-145.69;100.00
1726;BME280;41776;48.260;8.928;2023-03-15T01:46:21;52541.44;;;-145.69;100.00
1726;BME280;41776;48.260;8.928;2023-03-15T01:48:54;52545.38;;;-145.69;100.00
1726;BME280;41776;48.260;8.928;2023-03-15T01:51:23;52555.28;;;-145.69;100.00
1726;BME280;41776;48.260;8.928;2023-03-15T01:53:55;52575.09;;;-145.69;100.00
1726;BME280;41776;48.260;8.928;2023-03-15T01:56:25;52551.31;;;-145.69;100.00
1726;BME280;41776;48.260;8.928;2023-03-15T01:58:54;52559.25;;;-145.69;100.00
1726;BME280;41776;48.260;8.928;2023-03-15T02:01:26;52531.53;;;-145.69;100.00
1726;BME280;41776;48.260;8.928;2023-03-15T02:03:58;52551.31;;;-145.69;100.00
1726;BME280;41776;48.260;8.928;2023-03-15T02:06:30;52551.31;;;-145.69;100.00
1726;BME280;41776;48.260;8.928;2023-03-15T02:09:02;52579.06;;;-145.69;100.00
1726;BME280;41776;48.260;8.928;2023-03-15T02:11:32;52545.38;;;-145.69;100.00
1726;BME280;41776;48.260;8.928;2023-03-15T02:14:01;52543.41;;;-145.69;100.00
1726;BME280;41776;48.260;8.928;2023-03-15T02:16:28;52557.28;;;-145.69;100.00
1726;BME280;41776;48.260;8.928;2023-03-15T02:18:57;52594.91;;;-145.69;100.00
1726;BME280;41776;48.260;8.928;2023-03-15T02:21:32;52545.38;;;-145.69;100.00
1726;BME280;41776;48.260;8.928;2023-03-15T02:24:09;52571.13;;;-145.69;100.00
1726;BME280;41776;48.260;8.928;2023-03-15T02:26:43;52573.13;;;-145.69;100.00
1726;BME280;41776;48.260;8.928;2023-03-15T02:29:12;52569.16;;;-145.69;100.00
1726;BME280;41776;48.260;8.928;2023-03-15T02:31:39;52545.38;;;-145.69;100.00
1726;BME280;41776;48.260;8.928;2023-03-15T02:34:09;52539.44;;;-145.69;100.00
1726;BME280;41776;48.260;8.928;2023-03-15T02:36:44;52521.63;;;-145.69;100.00
1726;BME280;41776;48.260;8.928;2023-03-15T02:39:15;52579.06;;;-145.69;100.00
1726;BME280;41776;48.260;8.928;2023-03-15T02:41:45;52565.19;;;-145.69;100.00
1726;BME280;41776;48.260;8.928;2023-03-15T02:44:20;52573.13;;;-145.69;100.00
1726;BME280;41776;48.260;8.928;2023-03-15T02:46:50;52563.22;;;-145.69;100.00
1726;BME280;41776;48.260;8.928;2023-03-15T02:49:20;52579.06;;;-145.69;100.00
1726;BME280;41776;48.260;8.928;2023-03-15T02:51:48;52575.09;;;-145.69;100.00
1726;BME280;41776;48.260;8.928;2023-03-15T02:54:15;52547.38;;;-145.69;100.00
1726;BME280;41776;48.260;8.928;2023-03-15T02:56:41;52588.97;;;-145.69;100.00
1726;BME280;41776;48.260;8.928;2023-03-15T02:59:08;52573.13;;;-145.69;100.00
1726;BME280;41776;48.260;8.928;2023-03-15T03:01:38;52592.91;;;-145.69;100.00
1726;BME280;41776;48.260;8.928;2023-03-15T03:04:05;52561.22;;;-145.69;100.00
1726;BME280;41776;48.260;8.928;2023-03-15T03:06:32;52569.16;;;-145.69;100.00
1726;BME280;41776;48.260;8.928;2023-03-15T03:08:58;52547.38;;;-145.69;100.00
1726;BME280;41776;48.260;8.928;2023-03-15T03:11:28;52575.09;;;-145.69;100.00
1726;BME280;41776;48.260;8.928;2023-03-15T03:13:55;52583.00;;;-145.69;100.00
1726;BME280;41776;48.260;8.928;2023-03-15T03:16:21;52583.00;;;-145.69;100.00
1726;BME280;41776;48.260;8.928;2023-03-15T03:18:49;52535.47;;;-145.69;100.00
1726;BME280;41776;48.260;8.928;2023-03-15T03:21:16;52563.22;;;-145.69;100.00
1726;BME280;41776;48.260;8.928;2023-03-15T03:23:42;52565.19;;;-145.69;100.00
1726;BME280;41776;48.260;8.928;2023-03-15T03:26:12;52553.31;;;-145.69;100.00
1726;BME280;41776;48.260;8.928;2023-03-15T03:28:42;52614.72;;;-145.69;100.00
1726;BME280;41776;48.260;8.928;2023-03-15T03:31:16;52575.09;;;-145.69;100.00
1726;BME280;41776;48.260;8.928;2023-03-15T03:33:42;52573.13;;;-145.69;100.00
1726;BME280;41776;48.260;8.928;2023-03-15T03:36:10;52575.09;;;-145.69;100.00
1726;BME280;41776;48.260;8.928;2023-03-15T03:38:38;52559.25;;;-145.69;100.00
1726;BME280;41776;48.260;8.928;2023-03-15T03:41:04;52586.97;;;-145.69;100.00
1726;BME280;41776;48.260;8.928;2023-03-15T03:43:31;52608.75;;;-145.69;100.00
1726;BME280;41776;48.260;8.928;2023-03-15T03:45:57;52581.03;;;-145.69;100.00
1726;BME280;41776;48.260;8.928;2023-03-15T03:48:24;52553.31;;;-145.69;100.00
1726;BME280;41776;48.260;8.928;2023-03-15T03:50:51;52551.31;;;-145.69;100.00
1726;BME280;41776;48.260;8.928;2023-03-15T03:53:18;52549.34;;;-145.69;100.00
1726;BME280;41776;48.260;8.928;2023-03-15T03:55:45;52559.25;;;-145.69;100.00
1726;BME280;41776;48.260;8.928;2023-03-15T03:58:11;52539.44;;;-145.69;100.00
1726;BME280;41776;48.260;8.928;2023-03-15T04:00:38;52555.28;;;-145.69;100.00
1726;BME280;41776;48.260;8.928;2023-03-15T04:03:06;52549.34;;;-145.69;100.00
1726;BME280;41776;48.260;8.928;2023-03-15T04:05:33;52551.31;;;-145.69;100.00
1726;BME280;41776;48.260;8.928;2023-03-15T04:07:59;52543.41;;;-145.69;100.00
1726;BME280;41776;48.260;8.928;2023-03-15T04:10:27;52571.13;;;-145.69;100.00
1726;BME280;41776;48.260;8.928;2023-03-15T04:12:55;52559.25;;;-145.69;100.00
1726;BME280;41776;48.260;8.928;2023-03-15T04:15:22;52567.16;;;-145.69;100.00
1726;BME280;41776;48.260;8.928;2023-03-15T04:17:50;52555.28;;;-145.69;100.00
1726;BME280;41776;48.260;8.928;2023-03-15T04:20:20;52559.25;;;-145.69;100.00
1726;BME280;41776;48.260;8.928;2023-03-15T04:22:46;52567.16;;;-145.69;100.00
1726;BME280;41776;48.260;8.928;2023-03-15T04:25:13;52551.31;;;-145.69;100.00
1726;BME280;41776;48.260;8.928;2023-03-15T04:27:41;52588.97;;;-145.69;100.00
1726;BME280;41776;48.260;8.928;2023-03-15T04:30:09;52551.31;;;-145.69;100.00
1726;BME280;41776;48.260;8.928;2023-03-15T04:32:36;52539.44;;;-145.69;100.00
1726;BME280;41776;48.260;8.928;2023-03-15T04:35:03;52571.13;;;-145.69;100.00
1726;BME280;41776;48.260;8.928;2023-03-15T04:37:30;52541.44;;;-145.69;100.00
1726;BME280;41776;48.260;8.928;2023-03-15T04:39:57;52571.13;;;-145.69;100.00
1726;BME280;41776;48.260;8.928;2023-03-15T04:42:23;52543.41;;;-145.69;100.00
1726;BME280;41776;48.260;8.928;2023-03-15T04:44:52;52571.13;;;-145.69;100.00
1726;BME280;41776;48.260;8.928;2023-03-15T04:47:18;52539.44;;;-145.69;100.00
1726;BME280;41776;48.260;8.928;2023-03-15T04:49:46;52567.16;;;-145.69;100.00
1726;BME280;41776;48.260;8.928;2023-03-15T04:52:13;52555.28;;;-145.69;100.00
1726;BME280;41776;48.260;8.928;2023-03-15T04:54:39;52585.00;;;-145.69;100.00
1726;BME280;41776;48.260;8.928;2023-03-15T04:57:06;52551.31;;;-145.69;100.00
1726;BME280;41776;48.260;8.928;2023-03-15T04:59:33;52547.38;;;-145.69;100.00
1726;BME280;41776;48.260;8.928;2023-03-15T05:02:01;52537.47;;;-145.69;100.00
1726;BME280;41776;48.260;8.928;2023-03-15T05:04:27;52575.09;;;-145.69;100.00
1726;BME280;41776;48.260;8.928;2023-03-15T05:06:54;52561.22;;;-145.69;100.00
1726;BME280;41776;48.260;8.928;2023-03-15T05:09:20;52594.91;;;-145.69;100.00
1726;BME280;41776;48.260;8.928;2023-03-15T05:11:47;52507.75;;;-145.69;100.00
1726;BME280;41776;48.260;8.928;2023-03-15T05:14:13;52565.19;;;-145.69;100.00
1726;BME280;41776;48.260;8.928;2023-03-15T05:16:40;52543.41;;;-145.69;100.00
1726;BME280;41776;48.260;8.928;2023-03-15T05:19:08;52561.22;;;-145.69;100.00
1726;BME280;41776;48.260;8.928;2023-03-15T05:21:35;52561.22;;;-145.69;100.00
1726;BME280;41776;48.260;8.928;2023-03-15T05:24:02;52561.22;;;-145.69;100.00
1726;BME280;41776;48.260;8.928;2023-03-15T05:26:29;52588.97;;;-145.69;100.00
1726;BME280;41776;48.260;8.928;2023-03-15T05:28:55;52588.97;;;-145.69;100.00
1726;BME280;41776;48.260;8.928;2023-03-15T05:31:22;52590.94;;;-145.69;100.00
1726;BME280;41776;48.260;8.928;2023-03-15T05:33:48;52575.09;;;-145.69;100.00
1726;BME280;41776;48.260;8.928;2023-03-15T05:36:20;52555.28;;;-145.69;100.00
1726;BME280;41776;48.260;8.928;2023-03-15T05:38:46;52531.53;;;-145.69;100.00
1726;BME280;41776;48.260;8.928;2023-03-15T05:41:13;52529.53;;;-145.69;100.00
1726;BME280;41776;48.260;8.928;2023-03-15T05:43:42;52549.34;;;-145.69;100.00
1726;BME280;41776;48.260;8.928;2023-03-15T05:46:08;52525.59;;;-145.69;100.00
1726;BME280;41776;48.260;8.928;2023-03-15T05:48:35;52602.81;;;-145.69;100.00
1726;BME280;41776;48.260;8.928;2023-03-15T05:51:01;52594.91;;;-145.69;100.00
1726;BME280;41776;48.260;8.928;2023-03-15T05:53:29;52565.19;;;-145.69;100.00
1726;BME280;41776;48.260;8.928;2023-03-15T05:55:56;52577.06;;;-145.69;100.00
1726;BME280;41776;48.260;8.928;2023-03-15T05:58:22;52588.97;;;-145.69;100.00
1726;BME280;41776;48.260;8.928;2023-03-15T06:00:49;52594.91;;;-145.69;100.00
1726;BME280;41776;48.260;8.928;2023-03-15T06:03:16;52543.41;;;-145.69;100.00
1726;BME280;41776;48.260;8.928;2023-03-15T06:05:42;52579.06;;;-145.69;100.00
1726;BME280;41776;48.260;8.928;2023-03-15T06:08:09;52561.22;;;-145.69;100.00
1726;BME280;41776;48.260;8.928;2023-03-15T06:10:37;52559.25;;;-145.69;100.00
1726;BME280;41776;48.260;8.928;2023-03-15T06:13:03;52559.25;;;-145.69;100.00
1726;BME280;41776;48.260;8.928;2023-03-15T06:15:31;52539.44;;;-145.69;100.00
1726;BME280;41776;48.260;8.928;2023-03-15T06:17:57;52557.28;;;-145.69;100.00
1726;BME280;41776;48.260;8.928;2023-03-15T06:20:24;52573.13;;;-145.69;100.00
1726;BME280;41776;48.260;8.928;2023-03-15T06:22:50;52594.91;;;-145.69;100.00
1726;BME280;41776;48.260;8.928;2023-03-15T06:25:17;52583.00;;;-145.69;100.00
1726;BME280;41776;48.260;8.928;2023-03-15T06:27:45;52583.00;;;-145.69;100.00
1726;BME280;41776;48.260;8.928;2023-03-15T06:30:12;52563.22;;;-145.69;100.00
1726;BME280;41776;48.260;8.928;2023-03-15T06:32:39;52545.38;;;-145.69;100.00
1726;BME280;41776;48.260;8.928;2023-03-15T06:35:06;52575.09;;;-145.69;100.00
1726;BME280;41776;48.260;8.928;2023-03-15T06:37:33;52569.16;;;-145.69;100.00
1726;BME280;41776;48.260;8.928;2023-03-15T06:40:00;52571.13;;;-145.69;100.00
1726;BME280;41776;48.260;8.928;2023-03-15T06:42:28;52586.97;;;-145.69;100.00
1726;BME280;41776;48.260;8.928;2023-03-15T06:44:56;52561.22;;;-145.69;100.00
1726;BME280;41776;48.260;8.928;2023-03-15T06:47:22;52571.13;;;-145.69;100.00
1726;BME280;41776;48.260;8.928;2023-03-15T06:49:49;52571.13;;;-145.69;100.00
1726;BME280;41776;48.260;8.928;2023-03-15T06:52:16;52583.00;;;-145.69;100.00
1726;BME280;41776;48.260;8.928;2023-03-15T06:54:42;52583.00;;;-145.69;100.00
1726;BME280;41776;48.260;8.928;2023-03-15T06:57:09;52557.28;;;-145.69;100.00
1726;BME280;41776;48.260;8.928;2023-03-15T06:59:36;52563.22;;;-145.69;100.00
1726;BME280;41776;48.260;8.928;2023-03-15T07:02:04;52551.31;;;-145.69;100.00
1726;BME280;41776;48.260;8.928;2023-03-15T07:04:30;52579.06;;;-145.69;100.00
1726;BME280;41776;48.260;8.928;2023-03-15T07:06:57;52563.22;;;-145.69;100.00
1726;BME280;41776;48.260;8.928;2023-03-15T07:09:23;52575.09;;;-145.69;100.00
1726;BME280;41776;48.260;8.928;2023-03-15T07:11:50;52588.97;;;-145.69;100.00
1726;BME280;41776;48.260;8.928;2023-03-15T07:14:16;52586.97;;;-145.69;100.00
1726;BME280;41776;48.260;8.928;2023-03-15T07:16:43;52555.28;;;-145.69;100.00
1726;BME280;41776;48.260;8.928;2023-03-15T07:19:11;52561.22;;;-145.69;100.00
1726;BME280;41776;48.260;8.928;2023-03-15T07:21:37;52563.22;;;-145.69;100.00
1726;BME280;41776;48.260;8.928;2023-03-15T07:24:04;52573.13;;;-145.69;100.00
1726;BME280;41776;48.260;8.928;2023-03-15T07:26:31;52559.25;;;-145.69;100.00
1726;BME280;41776;48.260;8.928;2023-03-15T07:28:57;52533.50;;;-145.69;100.00
1726;BME280;41776;48.260;8.928;2023-03-15T07:31:24;52577.06;;;-145.69;100.00
1726;BME280;41776;48.260;8.928;2023-03-15T07:33:51;52553.31;;;-145.69;100.00
1726;BME280;41776;48.260;8.928;2023-03-15T07:36:19;52547.38;;;-145.69;100.00
1726;BME280;41776;48.260;8.928;2023-03-15T07:38:46;52527.56;;;-145.69;100.00
1726;BME280;41776;48.260;8.928;2023-03-15T07:41:13;52553.31;;;-145.69;100.00
1726;BME280;41776;48.260;8.928;2023-03-15T07:43:39;52586.97;;;-145.69;100.00
1726;BME280;41776;48.260;8.928;2023-03-15T07:46:06;52559.25;;;-145.69;100.00
1726;BME280;41776;48.260;8.928;2023-03-15T07:48:33;52523.59;;;-145.69;100.00
1726;BME280;41776;48.260;8.928;2023-03-15T07:50:59;52547.38;;;-145.69;100.00
1726;BME280;41776;48.260;8.928;2023-03-15T07:53:27;52515.69;;;-145.69;100.00
1726;BME280;41776;48.260;8.928;2023-03-15T07:55:54;52541.44;;;-145.69;100.00
1726;BME280;41776;48.260;8.928;2023-03-15T07:58:20;52573.13;;;-145.69;100.00
1726;BME280;41776;48.260;8.928;2023-03-15T08:00:47;52547.38;;;-145.69;100.00
1726;BME280;41776;48.260;8.928;2023-03-15T08:03:13;52543.41;;;-145.69;100.00
1726;BME280;41776;48.260;8.928;2023-03-15T08:05:40;52555.28;;;-145.69;100.00
1726;BME280;41776;48.260;8.928;2023-03-15T08:08:06;52571.13;;;-145.69;100.00
1726;BME280;41776;48.260;8.928;2023-03-15T08:10:34;52539.44;;;-145.69;100.00
1726;BME280;41776;48.260;8.928;2023-03-15T08:13:01;52539.44;;;-145.69;100.00
1726;BME280;41776;48.260;8.928;2023-03-15T08:15:27;52543.41;;;-145.69;100.00
1726;BME280;41776;48.260;8.928;2023-03-15T08:17:54;52549.34;;;-145.69;100.00
1726;BME280;41776;48.260;8.928;2023-03-15T08:20:20;52480.03;;;-145.69;100.00
1726;BME280;41776;48.260;8.928;2023-03-15T08:22:48;52543.41;;;-145.69;100.00
1726;BME280;41776;48.260;8.928;2023-03-15T08:25:17;52527.56;;;-145.69;100.00
1726;BME280;41776;48.260;8.928;2023-03-15T08:27:45;52565.19;;;-145.69;100.00
1726;BME280;41776;48.260;8.928;2023-03-15T08:30:13;52531.53;;;-145.69;100.00
1726;BME280;41776;48.260;8.928;2023-03-15T08:32:40;52551.31;;;-145.69;100.00
1726;BME280;41776;48.260;8.928;2023-03-15T08:35:08;52559.25;;;-145.69;100.00
1726;BME280;41776;48.260;8.928;2023-03-15T08:37:37;52557.28;;;-145.69;100.00
1726;BME280;41776;48.260;8.928;2023-03-15T08:40:04;52557.28;;;-145.69;100.00
1726;BME280;41776;48.260;8.928;2023-03-15T08:42:32;52539.44;;;-145.69;100.00
1726;BME280;41776;48.260;8.928;2023-03-15T08:45:00;52535.47;;;-145.69;100.00
1726;BME280;41776;48.260;8.928;2023-03-15T08:47:27;52531.53;;;-145.69;100.00
1726;BME280;41776;48.260;8.928;2023-03-15T08:49:53;52541.44;;;-145.69;100.00
1726;BME280;41776;48.260;8.928;2023-03-15T08:52:20;52537.47;;;-145.69;100.00
1726;BME280;41776;48.260;8.928;2023-03-15T08:54:47;52493.91;;;-145.69;100.00
1726;BME280;41776;48.260;8.928;2023-03-15T08:57:14;52561.22;;;-145.69;100.00
1726;BME280;41776;48.260;8.928;2023-03-15T08:59:40;52529.53;;;-145.69;100.00
1726;BME280;41776;48.260;8.928;2023-03-15T09:02:09;52521.63;;;-145.69;100.00
1726;BME280;41776;48.260;8.928;2023-03-15T09:04:36;52539.44;;;-145.69;100.00
1726;BME280;41776;48.260;8.928;2023-03-15T09:07:03;52527.56;;;-145.69;100.00
1726;BME280;41776;48.260;8.928;2023-03-15T09:09:30;52499.84;;;-145.69;100.00
1726;BME280;41776;48.260;8.928;2023-03-15T09:11:57;52531.53;;;-145.69;100.00
1726;BME280;41776;48.260;8.928;2023-03-15T09:14:24;52551.31;;;-145.69;100.00
1726;BME280;41776;48.260;8.928;2023-03-15T09:16:50;52541.44;;;-145.69;100.00
1726;BME280;41776;48.260;8.928;2023-03-15T09:19:18;52531.53;;;-145.69;100.00
1726;BME280;41776;48.260;8.928;2023-03-15T09:21:45;52547.38;;;-145.69;100.00
1726;BME280;41776;48.260;8.928;2023-03-15T09:24:12;52527.56;;;-145.69;100.00
1726;BME280;41776;48.260;8.928;2023-03-15T09:26:39;52547.38;;;-145.69;96.59
1726;BME280;41776;48.260;8.928;2023-03-15T09:29:06;52535.47;;;-145.69;99.66
1726;BME280;41776;48.260;8.928;2023-03-15T09:31:34;52531.53;;;-145.69;100.00
1726;BME280;41776;48.260;8.928;2023-03-15T09:34:00;52547.38;;;-145.69;100.00
1726;BME280;41776;48.260;8.928;2023-03-15T09:36:28;52515.69;;;-145.69;100.00
1726;BME280;41776;48.260;8.928;2023-03-15T09:38:55;52529.53;;;-145.69;100.00
1726;BME280;41776;48.260;8.928;2023-03-15T09:41:34;52517.66;;;-145.69;93.24
1726;BME280;41776;48.260;8.928;2023-03-15T09:44:13;52515.69;;;-145.69;99.14
1726;BME280;41776;48.260;8.928;2023-03-15T09:46:51;52529.53;;;-145.69;95.54
1726;BME280;41776;48.260;8.928;2023-03-15T09:49:32;52511.72;;;-145.69;93.38
1726;BME280;41776;48.260;8.928;2023-03-15T09:52:12;52501.81;;;-145.69;89.27
1726;BME280;41776;48.260;8.928;2023-03-15T09:54:43;52517.66;;;-145.69;91.91
1726;BME280;41776;48.260;8.928;2023-03-15T09:57:14;52527.56;;;-145.69;96.51
1726;BME280;41776;48.260;8.928;2023-03-15T09:59:48;52551.31;;;-145.69;90.38
1726;BME280;41776;48.260;8.928;2023-03-15T10:02:20;52551.31;;;-145.69;97.90
1726;BME280;41776;48.260;8.928;2023-03-15T10:04:50;52527.56;;;-145.69;100.00
1726;BME280;41776;48.260;8.928;2023-03-15T10:07:21;52497.84;;;-145.69;98.69
1726;BME280;41776;48.260;8.928;2023-03-15T10:09:47;52511.72;;;-145.69;99.20
1726;BME280;41776;48.260;8.928;2023-03-15T10:12:15;52456.28;;;-145.69;94.68
1726;BME280;41776;48.260;8.928;2023-03-15T10:15:00;52531.53;;;-145.69;96.36
1726;BME280;41776;48.260;8.928;2023-03-15T10:17:34;52537.47;;;-145.69;88.94
1726;BME280;41776;48.260;8.928;2023-03-15T10:20:06;52525.59;;;-145.69;100.00
1726;BME280;41776;48.260;8.928;2023-03-15T10:22:40;52511.72;;;-145.69;97.25
1726;BME280;41776;48.260;8.928;2023-03-15T10:25:14;52511.72;;;-145.69;98.19
1726;BME280;41776;48.260;8.928;2023-03-15T10:27:45;52535.47;;;-145.69;100.00
1726;BME280;41776;48.260;8.928;2023-03-15T10:30:16;52505.78;;;-145.69;96.41
1726;BME280;41776;48.260;8.928;2023-03-15T10:32:44;52499.84;;;-145.69;100.00
1726;BME280;41776;48.260;8.928;2023-03-15T10:35:15;52482.00;;;-145.69;100.00
1726;BME280;41776;48.260;8.928;2023-03-15T10:37:43;52478.06;;;-145.69;92.52
1726;BME280;41776;48.260;8.928;2023-03-15T10:40:11;52541.44;;;-145.69;100.00
1726;BME280;41776;48.260;8.928;2023-03-15T10:42:41;52515.69;;;-145.69;95.88
1726;BME280;41776;48.260;8.928;2023-03-15T10:45:19;52491.91;;;-145.69;100.00
1726;BME280;41776;48.260;8.928;2023-03-15T10:47:47;52523.59;;;-145.69;99.45
1726;BME280;41776;48.260;8.928;2023-03-15T10:50:17;52499.84;;;-145.69;89.79
1726;BME280;41776;48.260;8.928;2023-03-15T10:52:45;52474.09;;;-145.69;90.07
1726;BME280;41776;48.260;8.928;2023-03-15T10:55:14;52509.75;;;-145.69;90.06
1726;BME280;41776;48.260;8.928;2023-03-15T10:57:50;52491.91;;;-145.69;74.83
1726;BME280;41776;48.260;8.928;2023-03-15T11:00:22;52497.84;;;-145.69;74.98
1726;BME280;41776;48.260;8.928;2023-03-15T11:03:00;52480.03;;;-145.69;78.70
1726;BME280;41776;48.260;8.928;2023-03-15T11:05:29;52487.97;;;-145.69;74.35
1726;BME280;41776;48.260;8.928;2023-03-15T11:07:59;52484.00;;;-145.69;79.26
1726;BME280;41776;48.260;8.928;2023-03-15T11:10:27;52499.84;;;-145.69;71.10
1726;BME280;41776;48.260;8.928;2023-03-15T11:13:11;52503.81;;;-145.69;68.24
1726;BME280;41776;48.260;8.928;2023-03-15T11:15:39;52476.06;;;-145.69;66.44
1726;BME280;41776;48.260;8.928;2023-03-15T11:18:16;52503.81;;;-145.69;74.89
1726;BME280;41776;48.260;8.928;2023-03-15T11:20:42;52495.88;;;-145.69;67.30
1726;BME280;41776;48.260;8.928;2023-03-15T11:23:14;52487.97;;;-145.69;72.45
1726;BME280;41776;48.260;8.928;2023-03-15T11:25:42;52495.88;;;-145.69;73.02
1726;BME280;41776;48.260;8.928;2023-03-15T11:28:15;52497.84;;;-145.69;80.37
1726;BME280;41776;48.260;8.928;2023-03-15T11:30:43;52501.81;;;-145.69;79.19
1726;BME280;41776;48.260;8.928;2023-03-15T11:33:26;52489.94;;;-145.69;82.49
1726;BME280;41776;48.260;8.928;2023-03-15T11:35:58;52468.16;;;-145.69;73.25
1726;BME280;41776;48.260;8.928;2023-03-15T11:38:29;52458.25;;;-145.69;65.52
1726;BME280;41776;48.260;8.928;2023-03-15T11:40:59;52470.13;;;-145.69;66.98
1726;BME280;41776;48.260;8.928;2023-03-15T11:43:30;52489.94;;;-145.69;66.70
1726;BME280;41776;48.260;8.928;2023-03-15T11:46:00;52474.09;;;-145.69;63.67
1726;BME280;41776;48.260;8.928;2023-03-15T11:48:33;52456.28;;;-145.69;69.49
1726;BME280;41776;48.260;8.928;2023-03-15T11:51:05;52440.44;;;-145.69;62.01
1726;BME280;41776;48.260;8.928;2023-03-15T11:53:36;52499.84;;;-145.69;64.53
1726;BME280;41776;48.260;8.928;2023-03-15T11:56:20;52511.72;;;-145.69;71.34
1726;BME280;41776;48.260;8.928;2023-03-15T11:58:59;52491.91;;;-145.69;67.25
1726;BME280;41776;48.260;8.928;2023-03-15T12:01:28;52487.97;;;-145.69;55.82
1726;BME280;41776;48.260;8.928;2023-03-15T12:04:27;52485.97;;;-145.69;55.03
1726;BME280;41776;48.260;8.928;2023-03-15T12:06:54;52472.13;;;-145.69;51.37
1726;BME280;41776;48.260;8.928;2023-03-15T12:09:44;52503.81;;;-145.69;53.77
1726;BME280;41776;48.260;8.928;2023-03-15T12:12:34;52503.81;;;-145.69;56.55
1726;BME280;41776;48.260;8.928;2023-03-15T12:15:04;52460.22;;;-145.69;67.95
1726;BME280;41776;48.260;8.928;2023-03-15T12:17:38;52484.00;;;-145.69;55.08
1726;BME280;41776;48.260;8.928;2023-03-15T12:20:16;52452.31;;;-145.69;54.69
1726;BME280;41776;48.260;8.928;2023-03-15T12:22:49;52487.97;;;-145.69;59.25
1726;BME280;41776;48.260;8.928;2023-03-15T12:25:19;52472.13;;;-145.69;65.06
1726;BME280;41776;48.260;8.928;2023-03-15T12:27:49;52480.03;;;-145.69;56.12
1726;BME280;41776;48.260;8.928;2023-03-15T12:30:20;52468.16;;;-145.69;54.89
1726;BME280;41776;48.260;8.928;2023-03-15T12:32:50;52448.34;;;-145.69;67.65
1726;BME280;41776;48.260;8.928;2023-03-15T12:35:20;52444.38;;;-145.69;66.03
1726;BME280;41776;48.260;8.928;2023-03-15T12:37:49;52452.31;;;-145.69;56.09
1726;BME280;41776;48.260;8.928;2023-03-15T12:40:39;52434.47;;;-145.69;58.08
1726;BME280;41776;48.260;8.928;2023-03-15T12:43:06;52458.25;;;-145.69;57.17
1726;BME280;41776;48.260;8.928;2023-03-15T12:45:38;52440.44;;;-145.69;67.85
1726;BME280;41776;48.260;8.928;2023-03-15T12:48:25;52474.09;;;-145.69;52.43
1726;BME280;41776;48.260;8.928;2023-03-15T12:50:55;52444.38;;;-145.69;53.23